PAMR

Merrill Field

Airport
ICAO code
PAMR
Summary
ICAO Region
NAM
ICAO Territory
Location

Anchorage,

Elevation
0 ft
Coordinates
61° 12' 52" N , 149° 51' 1" W
KCC
Airport CFIT
Altimeter Temperature Error Correction
Metar
PAMR 151620Z 32003KT 10SM CLR 16/09 A3005 RMK AO2 T01560089

Description

General aviation airport serving Anchorage, Alaska.

Climatology

Cool continental climate/Subarctic climate (Köppen climate classification Dfc)

Runways

Designator Length Width Surface Rops
4/22 610 18 GVL No/No
16/34 805 23 ASP No/No
7/25 1219 30 ASP No/No

Airport map

Aerial View

SKYbrary Partners:

Safety knowledge contributed by: